createdAt,value
2019-02-27T00:00:37.135Z,43.98
2019-02-27T00:05:41.707Z,44.03
2019-02-27T00:10:45.898Z,44.06
2019-02-27T00:15:49.371Z,44.06
2019-02-27T00:20:52.855Z,44.08
2019-02-27T00:25:56.334Z,44.13
2019-02-27T00:30:59.820Z,44.13
2019-02-27T00:36:03.305Z,44.15
2019-02-27T00:41:06.782Z,44.17
2019-02-27T00:46:10.736Z,44.20
2019-02-27T00:51:15.470Z,44.21
2019-02-27T00:56:18.956Z,44.19
2019-02-27T01:01:22.434Z,44.22
2019-02-27T01:06:25.922Z,44.21
2019-02-27T01:11:29.404Z,44.24
2019-02-27T01:16:32.888Z,44.28
2019-02-27T01:21:36.372Z,44.31
2019-02-27T01:26:39.862Z,44.33
2019-02-27T01:31:43.344Z,44.31
2019-02-27T01:36:46.836Z,44.33
2019-02-27T01:41:50.316Z,44.37
2019-02-27T01:46:54.602Z,44.35
2019-02-27T01:51:59.172Z,44.39
2019-02-27T01:57:03.645Z,44.39
2019-02-27T02:02:07.134Z,44.39
2019-02-27T02:07:10.780Z,44.37
2019-02-27T02:12:20.119Z,44.44
2019-02-27T02:17:26.637Z,44.45
2019-02-27T02:22:33.160Z,44.48
2019-02-27T02:27:45.473Z,44.50
2019-02-27T02:33:20.986Z,44.53
2019-02-27T02:38:33.562Z,44.51
2019-02-27T02:44:13.737Z,44.50
2019-02-27T02:49:29.283Z,44.50
2019-02-27T02:54:47.603Z,44.54
2019-02-27T03:00:18.398Z,44.54
2019-02-27T03:05:36.676Z,44.56
2019-02-27T03:10:46.133Z,44.58
2019-02-27T03:16:05.711Z,44.60
2019-02-27T03:21:17.768Z,44.62
2019-02-27T03:26:32.620Z,44.59
2019-02-27T03:31:57.689Z,44.63
2019-02-27T03:37:04.993Z,44.64
2019-02-27T03:42:17.204Z,44.64
2019-02-27T03:47:38.687Z,44.63
2019-02-27T03:53:03.727Z,44.60
2019-02-27T03:58:21.924Z,44.64
2019-02-27T04:03:40.196Z,44.61
2019-02-27T04:08:57.065Z,44.61
2019-02-27T04:14:05.010Z,44.61
2019-02-27T04:19:05.728Z,44.66
2019-02-27T04:24:09.195Z,44.64
2019-02-27T04:29:12.678Z,44.64
2019-02-27T04:34:16.151Z,44.65
2019-02-27T04:39:19.622Z,44.65
2019-02-27T04:44:23.093Z,44.65
2019-02-27T04:49:26.569Z,44.65
2019-02-27T04:54:30.038Z,44.66
2019-02-27T04:59:33.510Z,44.62
2019-02-27T05:04:36.990Z,44.75
2019-02-27T05:09:40.450Z,44.72
2019-02-27T05:14:43.925Z,44.73
2019-02-27T05:19:47.397Z,44.76
2019-02-27T05:24:50.870Z,44.78
2019-02-27T05:29:54.347Z,44.79
2019-02-27T05:34:57.827Z,44.79
2019-02-27T05:40:01.305Z,44.76
2019-02-27T05:45:07.215Z,44.79
2019-02-27T05:50:12.125Z,44.77
2019-02-27T05:55:15.596Z,44.75
2019-02-27T06:00:21.709Z,44.76
2019-02-27T06:05:25.188Z,44.73
2019-02-27T06:10:28.657Z,44.73
2019-02-27T06:15:32.128Z,44.70
2019-02-27T06:20:35.642Z,44.71
2019-02-27T06:25:39.108Z,44.69
2019-02-27T06:30:42.587Z,44.68
2019-02-27T06:35:46.129Z,44.69
2019-02-27T06:40:49.606Z,44.67
2019-02-27T06:45:54.250Z,44.68
2019-02-27T06:50:58.318Z,44.67
2019-02-27T06:56:03.981Z,44.63
2019-02-27T07:01:09.726Z,44.67
2019-02-27T07:06:12.793Z,44.66
2019-02-27T07:11:16.535Z,44.63
2019-02-27T07:16:20.474Z,44.63
2019-02-27T07:21:25.211Z,44.70
2019-02-27T07:26:28.685Z,44.70
2019-02-27T07:31:32.159Z,44.68
2019-02-27T07:36:35.965Z,44.68
2019-02-27T07:41:40.832Z,44.69
2019-02-27T07:46:44.308Z,44.84
2019-02-27T07:51:48.580Z,44.89
2019-02-27T07:56:52.144Z,29.54
2019-02-27T08:01:55.629Z,26.57
2019-02-27T08:06:59.092Z,26.16
2019-02-27T08:12:02.564Z,25.90
2019-02-27T08:17:17.015Z,26.42
2019-02-27T08:22:11.232Z,27.11
2019-02-27T08:27:14.704Z,28.81
2019-02-27T08:32:18.160Z,31.59
2019-02-27T08:37:21.624Z,32.30
2019-02-27T08:42:25.081Z,32.93
2019-02-27T08:47:28.545Z,33.79
2019-02-27T08:52:32.005Z,34.19
2019-02-27T08:57:35.468Z,34.71
2019-02-27T09:02:39.711Z,35.33
2019-02-27T09:07:43.220Z,35.70
2019-02-27T09:12:48.872Z,36.38
2019-02-27T09:17:51.830Z,36.37
2019-02-27T09:22:55.872Z,36.65
2019-02-27T09:27:59.442Z,36.81
2019-02-27T09:33:02.903Z,37.24
2019-02-27T09:38:06.437Z,37.88
2019-02-27T09:43:09.959Z,38.31
2019-02-27T09:48:13.437Z,38.76
2019-02-27T09:53:16.912Z,38.95
2019-02-27T09:58:21.985Z,39.27
2019-02-27T10:03:25.541Z,39.66
2019-02-27T10:08:29.006Z,39.77
2019-02-27T10:13:35.500Z,39.76
2019-02-27T10:18:38.592Z,39.70
2019-02-27T10:23:42.047Z,39.71
2019-02-27T10:28:45.511Z,39.64
2019-02-27T10:33:49.957Z,39.68
2019-02-27T10:38:53.425Z,39.85
2019-02-27T10:43:57.319Z,39.86
2019-02-27T10:49:00.736Z,39.85
2019-02-27T10:54:05.495Z,39.94
2019-02-27T10:59:09.041Z,40.03
2019-02-27T11:04:12.501Z,40.14
2019-02-27T11:09:24.275Z,40.34
2019-02-27T11:14:31.649Z,40.99
2019-02-27T11:19:34.794Z,41.17
2019-02-27T11:24:38.113Z,41.17
2019-02-27T11:29:41.574Z,41.13
2019-02-27T11:34:45.620Z,41.07
2019-02-27T11:39:50.244Z,41.03
2019-02-27T11:44:53.743Z,33.32
2019-02-27T11:49:57.214Z,28.07
2019-02-27T11:55:00.705Z,27.64
2019-02-27T12:00:06.032Z,29.03
2019-02-27T12:05:12.269Z,31.52
2019-02-27T12:10:18.469Z,33.26
2019-02-27T12:15:22.192Z,34.05
2019-02-27T12:20:26.113Z,35.24
2019-02-27T12:25:30.249Z,35.88
2019-02-27T12:30:37.121Z,36.16
2019-02-27T12:35:39.183Z,37.07
2019-02-27T12:40:42.665Z,37.07
2019-02-27T12:45:46.145Z,37.79
2019-02-27T12:50:49.617Z,37.87
2019-02-27T12:55:53.094Z,37.89
2019-02-27T13:00:56.572Z,38.13
2019-02-27T13:06:01.004Z,38.30
2019-02-27T13:11:07.731Z,38.35
2019-02-27T13:16:14.241Z,38.89
2019-02-27T13:21:20.206Z,39.19
2019-02-27T13:26:20.790Z,39.40
2019-02-27T13:31:24.270Z,38.33
2019-02-27T13:36:27.751Z,36.48
2019-02-27T13:41:31.248Z,36.71
2019-02-27T13:46:34.718Z,35.98
2019-02-27T13:51:40.246Z,35.99
2019-02-27T13:56:43.411Z,35.86
2019-02-27T14:01:46.898Z,34.95
2019-02-27T14:06:50.374Z,35.42
2019-02-27T14:11:58.384Z,35.92
2019-02-27T14:16:59.062Z,36.37
2019-02-27T14:22:07.116Z,36.77
2019-02-27T14:27:07.746Z,36.85
2019-02-27T14:32:11.226Z,37.08
2019-02-27T14:37:16.536Z,37.12
2019-02-27T14:42:20.776Z,37.97
2019-02-27T14:47:24.803Z,38.19
2019-02-27T14:52:28.286Z,38.63
2019-02-27T14:57:31.751Z,38.69
2019-02-27T15:02:35.250Z,38.68
2019-02-27T15:07:38.723Z,38.55
2019-02-27T15:12:42.193Z,38.58
2019-02-27T15:17:45.672Z,38.64
2019-02-27T15:22:52.512Z,38.75
2019-02-27T15:27:58.277Z,39.12
2019-02-27T15:33:03.788Z,39.34
2019-02-27T15:38:05.163Z,39.15
2019-02-27T15:43:11.444Z,38.20
2019-02-27T15:48:13.832Z,38.36
2019-02-27T15:53:17.294Z,38.36
2019-02-27T15:58:20.759Z,38.32
2019-02-27T16:03:24.219Z,38.03
2019-02-27T16:08:27.681Z,37.76
2019-02-27T16:13:31.981Z,37.57
2019-02-27T16:18:36.929Z,37.37
2019-02-27T16:23:41.171Z,37.32
2019-02-27T16:28:46.166Z,37.09
2019-02-27T16:33:49.819Z,37.06
2019-02-27T16:38:53.294Z,37.31
2019-02-27T16:43:56.751Z,37.55
2019-02-27T16:49:00.212Z,37.82
2019-02-27T16:54:03.872Z,38.04
2019-02-27T16:59:08.588Z,38.34
2019-02-27T17:04:12.531Z,40.33
2019-02-27T17:09:15.987Z,40.02
2019-02-27T17:14:21.171Z,39.77
2019-02-27T17:19:24.638Z,39.44
2019-02-27T17:24:28.102Z,39.32
2019-02-27T17:29:31.564Z,39.32
2019-02-27T17:34:35.489Z,39.65
2019-02-27T17:39:38.975Z,40.37
2019-02-27T17:44:42.437Z,40.62
2019-02-27T17:49:45.903Z,40.88
2019-02-27T17:54:50.856Z,41.08
2019-02-27T18:05:11.098Z,41.15
2019-02-27T18:10:15.384Z,41.16
2019-02-27T18:15:23.502Z,41.20
2019-02-27T18:20:27.042Z,41.24
2019-02-27T18:46:56.264Z,41.17
2019-02-27T18:51:59.392Z,41.08
2019-02-27T18:57:02.853Z,41.21
2019-02-27T19:02:07.581Z,41.24
2019-02-27T19:07:12.785Z,41.23
2019-02-27T19:12:16.415Z,41.21
2019-02-27T19:17:19.891Z,41.08
2019-02-27T19:22:23.404Z,40.69
2019-02-27T19:27:26.943Z,40.48
2019-02-27T19:32:30.752Z,40.21
2019-02-27T19:37:36.340Z,39.35
2019-02-27T19:42:48.305Z,38.92
2019-02-27T19:47:54.599Z,38.78
2019-02-27T19:52:57.021Z,38.65
2019-02-27T19:58:00.555Z,38.48
2019-02-27T20:03:04.095Z,38.41
2019-02-27T20:08:10.801Z,38.34
2019-02-27T20:13:13.047Z,38.25
2019-02-27T20:18:16.685Z,38.19
2019-02-27T20:23:20.141Z,38.12
2019-02-27T20:28:23.601Z,38.03
2019-02-27T20:33:27.131Z,38.04
2019-02-27T20:38:30.595Z,38.01
2019-02-27T20:43:34.064Z,38.00
2019-02-27T20:48:39.732Z,37.94
2019-02-27T20:53:42.720Z,37.88
2019-02-27T20:58:51.101Z,37.93
2019-02-27T21:03:51.370Z,37.88
2019-02-27T21:08:54.830Z,37.90
2019-02-27T21:13:58.296Z,38.01
2019-02-27T21:19:02.590Z,38.39
2019-02-27T21:24:06.703Z,38.87
2019-02-27T21:29:10.162Z,39.41
2019-02-27T21:34:13.623Z,39.61
2019-02-27T21:39:17.153Z,39.88
2019-02-27T21:44:25.505Z,40.08
2019-02-27T21:49:25.801Z,40.22
2019-02-27T21:54:29.268Z,40.36
2019-02-27T21:59:32.729Z,40.54
2019-02-27T22:04:36.188Z,40.64
2019-02-27T22:09:39.732Z,40.76
2019-02-27T22:14:43.194Z,40.80
2019-02-27T22:19:46.663Z,40.92
2019-02-27T22:24:52.268Z,41.04
2019-02-27T22:29:55.949Z,41.12
2019-02-27T22:35:02.800Z,41.16
2019-02-27T22:40:07.577Z,41.14
2019-02-27T22:45:16.599Z,41.24
2019-02-27T22:50:21.101Z,41.37
2019-02-27T22:55:24.578Z,41.38
2019-02-27T23:00:44.132Z,41.46
2019-02-27T23:05:47.801Z,41.52
2019-02-27T23:10:51.453Z,41.61
2019-02-27T23:15:57.807Z,41.61
2019-02-27T23:21:00.138Z,41.67
2019-02-27T23:26:03.706Z,41.71
2019-02-27T23:31:07.250Z,41.80
2019-02-27T23:36:10.729Z,41.85
2019-02-27T23:41:14.212Z,41.91
2019-02-27T23:46:18.489Z,41.94
2019-02-27T23:51:22.746Z,42.04
2019-02-27T23:56:26.227Z,42.09
